createdAt,value
2018-07-22T00:00:47.337Z,97.81
2018-07-22T00:01:47.336Z,99.93
2018-07-22T00:02:47.331Z,99.99
2018-07-22T00:03:47.331Z,99.99
2018-07-22T00:04:47.335Z,99.64
2018-07-22T00:05:47.335Z,99.99
2018-07-22T00:06:47.329Z,99.99
2018-07-22T00:07:47.329Z,99.99
2018-07-22T00:08:47.329Z,99.93
2018-07-22T00:09:47.329Z,99.99
2018-07-22T00:10:47.334Z,97.52
2018-07-22T00:11:47.333Z,97.42
2018-07-22T00:12:47.335Z,97.33
2018-07-22T00:13:47.332Z,97.52
2018-07-22T00:14:47.326Z,98.05
2018-07-22T00:15:47.327Z,98.58
2018-07-22T00:16:47.330Z,99.16
2018-07-22T00:17:47.324Z,96.61
2018-07-22T00:18:47.328Z,97.38
2018-07-22T00:19:47.328Z,99.98
2018-07-22T00:20:47.326Z,99.99
2018-07-22T00:21:47.322Z,99.99
2018-07-22T00:22:47.327Z,99.99
2018-07-22T00:23:47.326Z,99.99
2018-07-22T00:24:47.327Z,99.99
2018-07-22T00:25:47.326Z,99.99
2018-07-22T00:26:47.321Z,99.98
2018-07-22T00:27:47.321Z,98.34
2018-07-22T00:28:47.319Z,99.11
2018-07-22T00:29:47.318Z,98.92
2018-07-22T00:30:47.322Z,99.99
2018-07-22T00:31:47.323Z,99.99
2018-07-22T00:32:47.322Z,99.99
2018-07-22T00:33:47.320Z,99.99
2018-07-22T00:34:47.315Z,99.99
2018-07-22T00:35:47.318Z,99.99
2018-07-22T00:36:47.318Z,99.99
2018-07-22T00:37:47.318Z,99.99
2018-07-22T00:38:47.314Z,99.99
2018-07-22T00:39:47.314Z,99.99
2018-07-22T00:40:47.312Z,99.99
2018-07-22T00:41:47.310Z,99.99
2018-07-22T00:42:47.316Z,99.99
2018-07-22T00:43:47.315Z,99.99
2018-07-22T00:44:47.314Z,99.49
2018-07-22T00:45:47.314Z,98.92
2018-07-22T00:46:47.307Z,98.14
2018-07-22T00:47:47.306Z,96.80
2018-07-22T00:48:47.307Z,96.99
2018-07-22T00:49:47.305Z,97.28
2018-07-22T00:50:47.310Z,98.63
2018-07-22T00:51:47.308Z,98.34
2018-07-22T00:52:47.303Z,97.67
2018-07-22T00:53:47.303Z,96.51
2018-07-22T00:54:47.307Z,96.32
2018-07-22T00:55:47.307Z,96.42
2018-07-22T00:56:47.307Z,96.32
2018-07-22T00:57:47.305Z,97.28
2018-07-22T00:58:47.299Z,96.32
2018-07-22T00:59:47.308Z,96.51
2018-07-22T01:00:47.298Z,95.74
2018-07-22T01:01:47.296Z,95.65
2018-07-22T01:02:47.301Z,95.94
2018-07-22T01:03:47.300Z,96.89
2018-07-22T01:04:47.300Z,96.42
2018-07-22T01:05:47.299Z,97.09
2018-07-22T01:06:47.293Z,97.57
2018-07-22T01:07:47.293Z,96.89
2018-07-22T01:08:47.298Z,95.94
2018-07-22T01:09:47.297Z,95.84
2018-07-22T01:10:47.294Z,97.57
2018-07-22T01:11:47.290Z,97.28
2018-07-22T01:12:47.289Z,99.40
2018-07-22T01:13:47.287Z,99.59
2018-07-22T01:14:47.291Z,99.30
2018-07-22T01:15:47.292Z,98.19
2018-07-22T01:16:47.293Z,98.54
2018-07-22T01:17:47.288Z,96.94
2018-07-22T01:18:47.283Z,95.89
2018-07-22T01:19:47.283Z,96.85
2018-07-22T01:20:47.282Z,97.04
2018-07-22T01:21:47.282Z,97.91
2018-07-22T01:22:47.286Z,98.29
2018-07-22T01:23:47.289Z,97.71
2018-07-22T01:24:47.279Z,97.24
2018-07-22T01:25:47.281Z,96.56
2018-07-22T01:26:47.283Z,97.04
2018-07-22T01:27:47.282Z,96.85
2018-07-22T01:28:47.280Z,98.19
2018-07-22T01:29:47.279Z,99.16
2018-07-22T01:30:47.273Z,98.96
2018-07-22T01:31:47.272Z,99.16
2018-07-22T01:32:47.272Z,97.33
2018-07-22T01:33:47.271Z,96.94
2018-07-22T01:34:47.274Z,97.52
2018-07-22T01:35:47.273Z,97.14
2018-07-22T01:36:47.274Z,97.62
2018-07-22T01:37:47.271Z,97.24
2018-07-22T01:38:47.267Z,96.66
2018-07-22T01:39:47.266Z,96.37
2018-07-22T01:40:47.271Z,97.52
2018-07-22T01:41:47.269Z,97.81
2018-07-22T01:42:47.263Z,98.05
2018-07-22T01:43:47.262Z,99.06
2018-07-22T01:44:47.261Z,99.83
2018-07-22T01:45:47.260Z,99.44
2018-07-22T01:46:47.264Z,99.35
2018-07-22T01:47:47.263Z,99.99
2018-07-22T01:48:47.261Z,99.99
2018-07-22T01:49:47.260Z,99.99
2018-07-22T01:50:47.255Z,99.99
2018-07-22T01:51:47.256Z,99.99
2018-07-22T01:52:47.254Z,99.99
2018-07-22T01:53:47.252Z,99.99
2018-07-22T01:54:47.257Z,99.99
2018-07-22T01:55:47.256Z,99.99
2018-07-22T01:56:47.250Z,99.99
2018-07-22T01:57:47.255Z,99.99
2018-07-22T01:58:47.252Z,99.99
2018-07-22T01:59:47.253Z,98.91
2018-07-22T02:00:47.251Z,99.30
2018-07-22T02:01:47.249Z,99.49
2018-07-22T02:02:47.243Z,98.91
2018-07-22T02:03:47.241Z,98.63
2018-07-22T02:04:47.241Z,98.24
2018-07-22T02:05:47.239Z,99.21
2018-07-22T02:06:47.243Z,98.05
2018-07-22T02:07:47.245Z,98.05
2018-07-22T02:08:47.242Z,98.05
2018-07-22T02:09:47.240Z,98.05
2018-07-22T02:10:47.235Z,98.24
2018-07-22T02:11:47.234Z,98.24
2018-07-22T02:12:47.238Z,97.57
2018-07-22T02:13:47.238Z,97.76
2018-07-22T02:14:47.230Z,98.24
2018-07-22T02:15:47.230Z,97.57
2018-07-22T02:16:47.228Z,97.86
2018-07-22T02:17:47.226Z,98.63
2018-07-22T02:18:47.229Z,98.34
2018-07-22T02:19:47.229Z,98.34
2018-07-22T02:20:47.277Z,98.34
2018-07-22T02:21:47.228Z,98.53
2018-07-22T02:22:47.220Z,99.21
2018-07-22T02:23:47.219Z,99.01
2018-07-22T02:24:47.221Z,98.82
2018-07-22T02:25:47.217Z,98.86
2018-07-22T02:26:47.220Z,98.82
2018-07-22T02:27:47.220Z,99.21
2018-07-22T02:28:47.214Z,98.96
2018-07-22T02:29:47.211Z,99.40
2018-07-22T02:30:47.218Z,99.59
2018-07-22T02:31:47.217Z,99.25
2018-07-22T02:32:47.214Z,98.58
2018-07-22T02:33:47.212Z,99.54
2018-07-22T02:34:47.206Z,98.86
2018-07-22T02:35:47.204Z,98.77
2018-07-22T02:36:47.203Z,98.58
2018-07-22T02:37:47.202Z,99.44
2018-07-22T02:38:47.206Z,98.58
2018-07-22T02:39:47.208Z,98.96
2018-07-22T02:40:47.204Z,99.54
2018-07-22T02:41:47.201Z,98.86
2018-07-22T02:42:47.195Z,99.44
2018-07-22T02:43:47.196Z,99.54
2018-07-22T02:44:47.198Z,98.77
2018-07-22T02:45:47.196Z,98.96
2018-07-22T02:46:47.191Z,98.77
2018-07-22T02:47:47.188Z,98.77
2018-07-22T02:48:47.188Z,98.77
2018-07-22T02:49:47.192Z,99.15
2018-07-22T02:50:47.190Z,98.77
2018-07-22T02:51:47.188Z,98.77
2018-07-22T02:52:47.187Z,98.86
2018-07-22T02:53:47.185Z,99.15
2018-07-22T02:54:47.180Z,98.96
2018-07-22T02:55:47.180Z,99.54
2018-07-22T02:56:47.177Z,99.25
2018-07-22T02:57:47.177Z,99.54
2018-07-22T02:58:47.179Z,98.77
2018-07-22T02:59:47.178Z,99.25
2018-07-22T03:00:47.171Z,99.15
2018-07-22T03:01:47.171Z,98.96
2018-07-22T03:02:47.174Z,98.72
2018-07-22T03:03:47.172Z,98.77
2018-07-22T03:04:47.171Z,98.58
2018-07-22T03:05:47.169Z,99.01
2018-07-22T03:06:47.162Z,99.20
2018-07-22T03:07:47.162Z,99.06
2018-07-22T03:08:47.160Z,99.35
2018-07-22T03:09:47.158Z,99.20
2018-07-22T03:10:47.161Z,98.91
2018-07-22T03:11:47.160Z,99.30
2018-07-22T03:12:47.161Z,99.68
2018-07-22T03:13:47.155Z,99.49
2018-07-22T03:14:47.151Z,99.58
2018-07-22T03:15:47.149Z,99.68
2018-07-22T03:16:47.152Z,99.58
2018-07-22T03:17:47.150Z,99.68
2018-07-22T03:18:47.144Z,99.49
2018-07-22T03:19:47.143Z,99.78
2018-07-22T03:20:47.141Z,99.97
2018-07-22T03:21:47.144Z,99.99
2018-07-22T03:22:47.143Z,99.99
2018-07-22T03:23:47.141Z,99.87
2018-07-22T03:24:47.155Z,99.58
2018-07-22T03:25:47.137Z,99.99
2018-07-22T03:26:47.131Z,99.99
2018-07-22T03:27:47.129Z,99.99
2018-07-22T03:28:47.127Z,99.99
2018-07-22T03:29:47.125Z,99.99
2018-07-22T03:30:47.128Z,99.99
2018-07-22T03:31:47.127Z,99.99
2018-07-22T03:32:47.123Z,99.87
2018-07-22T03:33:47.121Z,99.99
2018-07-22T03:34:47.121Z,99.99
2018-07-22T03:35:47.120Z,99.99
2018-07-22T03:36:47.119Z,99.99
2018-07-22T03:37:47.116Z,99.99
2018-07-22T03:38:47.110Z,99.99
2018-07-22T03:39:47.109Z,99.99
2018-07-22T03:40:47.109Z,99.99
2018-07-22T03:41:47.110Z,99.99
2018-07-22T03:42:47.109Z,99.99
2018-07-22T03:43:47.106Z,99.99
2018-07-22T03:44:47.104Z,99.99
2018-07-22T03:45:47.103Z,99.99
2018-07-22T03:46:47.097Z,99.99
2018-07-22T03:47:47.095Z,99.99
2018-07-22T03:48:47.098Z,99.99
2018-07-22T03:49:47.094Z,99.99
2018-07-22T03:50:47.089Z,99.99
2018-07-22T03:51:47.087Z,99.99
2018-07-22T03:52:47.085Z,99.99
2018-07-22T03:53:47.083Z,99.99
2018-07-22T03:54:47.087Z,99.99
2018-07-22T03:55:47.084Z,99.99
2018-07-22T03:56:47.084Z,99.99
2018-07-22T03:57:47.081Z,99.99
2018-07-22T03:58:47.074Z,99.99
2018-07-22T03:59:47.071Z,99.99
2018-07-22T04:00:47.070Z,99.99
2018-07-22T04:01:47.068Z,99.99
2018-07-22T04:02:47.070Z,99.99
2018-07-22T04:03:47.069Z,99.99
2018-07-22T04:04:47.062Z,99.92
2018-07-22T04:05:47.060Z,99.99
2018-07-22T04:06:47.063Z,99.99
2018-07-22T04:07:47.062Z,99.99
2018-07-22T04:08:47.060Z,99.99
2018-07-22T04:09:47.058Z,99.99
2018-07-22T04:10:47.051Z,99.99
2018-07-22T04:11:47.049Z,99.99
2018-07-22T04:12:47.047Z,99.99
2018-07-22T04:13:47.046Z,99.99
2018-07-22T04:14:47.050Z,99.99
2018-07-22T04:15:47.045Z,99.92
2018-07-22T04:16:47.044Z,99.99
2018-07-22T04:17:47.042Z,99.99
2018-07-22T04:18:47.037Z,99.99
2018-07-22T04:19:47.034Z,99.99
2018-07-22T04:20:47.037Z,99.99
2018-07-22T04:21:47.035Z,99.78
2018-07-22T04:22:47.033Z,99.99
2018-07-22T04:23:47.029Z,99.49
2018-07-22T04:24:47.040Z,99.49
2018-07-22T04:25:47.023Z,99.58
2018-07-22T04:26:47.025Z,99.49
2018-07-22T04:27:47.026Z,98.72
2018-07-22T04:28:47.024Z,98.91
2018-07-22T04:29:47.025Z,99.20
2018-07-22T04:30:47.015Z,99.20
2018-07-22T04:31:47.012Z,99.20
2018-07-22T04:32:47.012Z,99.49
2018-07-22T04:33:47.009Z,99.10
2018-07-22T04:34:47.015Z,98.72
2018-07-22T04:35:47.011Z,98.91
2018-07-22T04:36:47.005Z,99.15
2018-07-22T04:37:47.001Z,98.96
2018-07-22T04:38:47.006Z,98.96
2018-07-22T04:39:47.007Z,99.15
2018-07-22T04:40:47.033Z,99.15
2018-07-22T04:41:47.001Z,98.48
2018-07-22T04:42:46.993Z,98.29
2018-07-22T04:43:46.993Z,98.48
2018-07-22T04:44:46.991Z,98.10
2018-07-22T04:45:46.990Z,98.58
2018-07-22T04:46:46.991Z,98.10
2018-07-22T04:47:46.991Z,98.10
2018-07-22T04:48:46.990Z,97.91
2018-07-22T04:49:46.988Z,97.14
2018-07-22T04:50:46.982Z,97.57
2018-07-22T04:51:46.981Z,97.38
2018-07-22T04:52:46.984Z,96.80
2018-07-22T04:53:46.982Z,96.80
2018-07-22T04:54:46.979Z,96.70
2018-07-22T04:55:46.979Z,96.90
2018-07-22T04:56:46.974Z,96.42
2018-07-22T04:57:46.971Z,95.70
2018-07-22T04:58:46.975Z,95.79
2018-07-22T04:59:46.974Z,96.17
2018-07-22T05:00:46.975Z,95.60
2018-07-22T05:01:46.973Z,94.97
2018-07-22T05:02:46.967Z,94.78
2018-07-22T05:03:46.968Z,94.59
2018-07-22T05:04:46.972Z,94.20
2018-07-22T05:05:46.966Z,93.67
2018-07-22T05:06:46.971Z,93.29
2018-07-22T05:07:46.972Z,92.22
2018-07-22T05:08:46.965Z,91.99
2018-07-22T05:09:46.964Z,91.79
2018-07-22T05:10:46.971Z,91.74
2018-07-22T05:11:46.970Z,90.97
2018-07-22T05:12:46.970Z,89.95
2018-07-22T05:13:46.970Z,89.28
2018-07-22T05:14:46.967Z,88.55
2018-07-22T05:15:46.968Z,88.11
2018-07-22T05:16:46.969Z,87.19
2018-07-22T05:17:46.969Z,86.46
2018-07-22T05:18:46.976Z,85.11
2018-07-22T05:19:46.977Z,83.99
2018-07-22T05:20:46.977Z,82.87
2018-07-22T05:21:46.978Z,82.04
2018-07-22T05:22:46.975Z,81.37
2018-07-22T05:23:46.977Z,80.63
2018-07-22T05:24:46.983Z,79.41
2018-07-22T05:25:46.985Z,77.76
2018-07-22T05:26:46.983Z,77.03
2018-07-22T05:27:46.985Z,76.83
2018-07-22T05:28:46.987Z,75.42
2018-07-22T05:29:46.991Z,74.35
2018-07-22T05:30:46.997Z,73.80
2018-07-22T05:31:47.002Z,73.84
2018-07-22T05:32:47.003Z,71.90
2018-07-22T05:33:47.005Z,71.84
2018-07-22T05:34:47.003Z,70.77
2018-07-22T05:35:47.016Z,70.19
2018-07-22T05:36:47.010Z,69.54
2018-07-22T05:37:47.013Z,69.35
2018-07-22T05:38:47.020Z,68.80
2018-07-22T05:39:47.024Z,68.12
2018-07-22T05:40:47.024Z,68.02
2018-07-22T05:41:47.027Z,67.57
2018-07-22T05:42:47.037Z,67.18
2018-07-22T05:43:47.040Z,66.24
2018-07-22T05:44:47.044Z,65.27
2018-07-22T05:45:47.049Z,64.52
2018-07-22T05:46:47.047Z,64.13
2018-07-22T05:47:47.053Z,63.75
2018-07-22T05:48:47.057Z,64.26
2018-07-22T05:49:47.060Z,63.71
2018-07-22T05:50:47.071Z,62.83
2018-07-22T05:51:47.077Z,61.76
2018-07-22T05:52:47.079Z,63.15
2018-07-22T05:53:47.083Z,63.35
2018-07-22T05:54:47.085Z,61.53
2018-07-22T05:55:47.089Z,60.97
2018-07-22T05:56:47.099Z,61.07
2018-07-22T05:57:47.103Z,60.13
2018-07-22T05:58:47.111Z,60.16
2018-07-22T05:59:47.110Z,58.59
2018-07-22T06:00:47.117Z,58.23
2018-07-22T06:01:47.124Z,57.54
2018-07-22T06:02:47.133Z,57.48
2018-07-22T06:03:47.139Z,56.82
2018-07-22T06:04:47.144Z,56.65
2018-07-22T06:05:47.152Z,56.46
2018-07-22T06:06:47.153Z,54.91
2018-07-22T06:07:47.161Z,54.43
2018-07-22T06:08:47.164Z,53.57
2018-07-22T06:09:47.169Z,53.38
2018-07-22T06:10:47.181Z,52.91
2018-07-22T06:11:47.246Z,52.23
2018-07-22T06:12:47.191Z,51.71
2018-07-22T06:13:47.195Z,51.44
2018-07-22T06:14:47.207Z,51.34
2018-07-22T06:15:47.214Z,50.83
2018-07-22T06:16:47.294Z,50.95
2018-07-22T06:17:47.229Z,50.83
2018-07-22T06:18:47.236Z,51.25
2018-07-22T06:19:47.239Z,51.73
2018-07-22T06:20:47.246Z,51.89
2018-07-22T06:21:47.253Z,51.10
2018-07-22T06:22:47.266Z,50.44
2018-07-22T06:23:47.273Z,49.48
2018-07-22T06:24:47.282Z,49.11
2018-07-22T06:25:47.290Z,48.84
2018-07-22T06:26:47.293Z,47.88
2018-07-22T06:27:47.304Z,47.49
2018-07-22T06:28:47.318Z,46.72
2018-07-22T06:29:47.323Z,45.64
2018-07-22T06:30:47.326Z,45.67
2018-07-22T06:31:47.336Z,45.07
2018-07-22T06:32:47.346Z,44.60
2018-07-22T06:33:47.353Z,44.70
2018-07-22T06:34:47.367Z,44.43
2018-07-22T06:35:47.375Z,44.23
2018-07-22T06:36:47.384Z,43.23
2018-07-22T06:37:47.393Z,43.93
2018-07-22T06:38:47.398Z,43.44
2018-07-22T06:39:47.408Z,43.03
2018-07-22T06:40:47.419Z,44.01
2018-07-22T06:41:47.427Z,43.03
2018-07-22T06:42:47.443Z,42.95
2018-07-22T06:43:47.452Z,42.04
2018-07-22T06:44:47.458Z,42.34
2018-07-22T06:45:47.467Z,42.34
2018-07-22T06:46:47.485Z,42.83
2018-07-22T06:47:47.493Z,42.54
2018-07-22T06:48:47.503Z,42.44
2018-07-22T06:49:47.513Z,42.32
2018-07-22T06:50:47.518Z,41.61
2018-07-22T06:51:47.528Z,42.71
2018-07-22T06:52:47.539Z,42.49
2018-07-22T06:53:47.550Z,42.49
2018-07-22T06:54:47.564Z,42.52
2018-07-22T06:55:47.575Z,42.41
2018-07-22T06:56:47.588Z,43.23
2018-07-22T06:57:47.601Z,42.07
2018-07-22T06:58:47.605Z,41.47
2018-07-22T06:59:47.614Z,41.59
2018-07-22T07:00:47.636Z,41.31
2018-07-22T07:01:47.640Z,40.33
2018-07-22T07:02:47.647Z,39.73
2018-07-22T07:03:47.658Z,39.86
2018-07-22T07:04:47.669Z,39.68
2018-07-22T07:05:47.684Z,39.20
2018-07-22T07:06:47.696Z,39.52
2018-07-22T07:07:47.710Z,39.14
2018-07-22T07:08:47.721Z,38.07
2018-07-22T07:09:47.730Z,36.69
2018-07-22T07:10:47.739Z,37.79
2018-07-22T07:11:47.750Z,36.90
2018-07-22T07:12:47.763Z,36.52
2018-07-22T07:13:47.774Z,36.23
2018-07-22T07:14:47.791Z,36.03
2018-07-22T07:15:47.806Z,35.83
2018-07-22T07:16:47.810Z,35.85
2018-07-22T07:17:47.824Z,34.84
2018-07-22T07:18:47.841Z,35.17
2018-07-22T07:19:47.854Z,34.68
2018-07-22T07:20:47.886Z,34.68
2018-07-22T07:21:47.879Z,34.76
2018-07-22T07:22:47.886Z,34.88
2018-07-22T07:23:47.900Z,34.59
2018-07-22T07:24:47.913Z,34.50
2018-07-22T07:25:47.926Z,33.89
2018-07-22T07:26:48.025Z,33.97
2018-07-22T07:27:47.958Z,34.46
2018-07-22T07:28:47.971Z,34.36
2018-07-22T07:29:47.984Z,34.18
2018-07-22T07:30:47.994Z,34.17
2018-07-22T07:31:48.008Z,33.37
2018-07-22T07:32:48.026Z,34.27
2018-07-22T07:33:48.041Z,33.78
2018-07-22T07:34:48.048Z,33.67
2018-07-22T07:35:48.063Z,34.33
2018-07-22T07:36:48.078Z,34.27
2018-07-22T07:37:48.090Z,35.21
2018-07-22T07:38:48.111Z,35.66
2018-07-22T07:39:48.124Z,36.16
2018-07-22T07:40:48.139Z,36.75
2018-07-22T07:41:48.151Z,37.30
2018-07-22T07:42:48.161Z,37.57
2018-07-22T07:43:48.175Z,38.47
2018-07-22T07:44:48.189Z,38.42
2018-07-22T07:45:48.205Z,39.40
2018-07-22T07:46:48.221Z,39.09
2018-07-22T07:47:48.239Z,38.79
2018-07-22T07:48:48.245Z,40.33
2018-07-22T07:49:48.258Z,40.70
2018-07-22T07:50:48.278Z,41.78
2018-07-22T07:51:48.290Z,41.41
2018-07-22T07:52:48.309Z,40.25
2018-07-22T07:53:48.318Z,40.03
2018-07-22T07:54:48.327Z,40.61
2018-07-22T07:55:48.340Z,40.51
2018-07-22T07:56:48.353Z,41.02
2018-07-22T07:57:48.366Z,39.62
2018-07-22T07:58:48.384Z,38.87
2018-07-22T07:59:48.396Z,37.90
2018-07-22T08:00:48.408Z,37.21
2018-07-22T08:01:48.421Z,36.14
2018-07-22T08:02:48.430Z,37.03
2018-07-22T08:03:48.489Z,36.82
2018-07-22T08:04:48.462Z,37.35
2018-07-22T08:05:48.473Z,39.12
2018-07-22T08:06:48.483Z,39.25
2018-07-22T08:07:48.497Z,39.04
2018-07-22T08:08:48.512Z,36.99
2018-07-22T08:09:48.524Z,35.40
2018-07-22T08:10:48.543Z,37.29
2018-07-22T08:11:48.591Z,36.60
2018-07-22T08:12:48.574Z,36.12
2018-07-22T08:13:48.585Z,35.05
2018-07-22T08:14:48.594Z,36.60
2018-07-22T08:15:48.612Z,36.65
2018-07-22T08:16:48.623Z,37.24
2018-07-22T08:17:48.637Z,37.30
2018-07-22T08:18:48.656Z,37.65
2018-07-22T08:19:48.671Z,36.40
2018-07-22T08:20:48.681Z,35.31
2018-07-22T08:21:48.893Z,34.43
2018-07-22T08:22:48.715Z,34.20
2018-07-22T08:23:48.730Z,35.88
2018-07-22T08:24:48.746Z,36.00
2018-07-22T08:25:48.761Z,34.06
2018-07-22T08:26:48.774Z,34.36
2018-07-22T08:27:48.785Z,33.49
2018-07-22T08:28:48.801Z,34.44
2018-07-22T08:29:48.817Z,35.08
2018-07-22T08:30:48.838Z,35.41
2018-07-22T08:31:48.850Z,35.81
2018-07-22T08:32:48.866Z,34.76
2018-07-22T08:33:48.881Z,34.55
2018-07-22T08:34:48.893Z,35.43
2018-07-22T08:35:48.909Z,35.60
2018-07-22T08:36:48.929Z,36.15
2018-07-22T08:37:48.944Z,37.02
2018-07-22T08:38:48.956Z,35.99
2018-07-22T08:39:48.974Z,36.19
2018-07-22T08:40:48.988Z,35.40
2018-07-22T08:41:49.003Z,36.23
2018-07-22T08:42:49.024Z,35.77
2018-07-22T08:43:49.041Z,34.86
2018-07-22T08:44:49.057Z,34.41
2018-07-22T08:45:49.072Z,34.71
2018-07-22T08:46:49.084Z,34.63
2018-07-22T08:47:49.103Z,33.75
2018-07-22T08:48:49.121Z,34.61
2018-07-22T08:49:49.135Z,35.43
2018-07-22T08:50:49.155Z,35.71
2018-07-22T08:51:49.174Z,35.97
2018-07-22T08:52:49.185Z,35.60
2018-07-22T08:53:49.202Z,34.55
2018-07-22T08:54:49.222Z,32.12
2018-07-22T08:55:49.240Z,33.59
2018-07-22T08:56:49.255Z,35.00
2018-07-22T08:57:49.271Z,34.41
2018-07-22T08:58:49.284Z,34.41
2018-07-22T08:59:49.302Z,34.53
2018-07-22T09:00:49.318Z,33.56
2018-07-22T09:01:49.334Z,33.20
2018-07-22T09:02:49.357Z,32.25
2018-07-22T09:03:49.375Z,31.82
2018-07-22T09:04:49.391Z,31.08
2018-07-22T09:05:49.408Z,31.74
2018-07-22T09:06:49.420Z,31.79
2018-07-22T09:07:49.438Z,30.65
2018-07-22T09:08:49.460Z,29.31
2018-07-22T09:09:49.477Z,28.96
2018-07-22T09:10:49.493Z,29.65
2018-07-22T09:11:49.597Z,29.25
2018-07-22T09:12:49.530Z,29.77
2018-07-22T09:13:49.542Z,29.19
2018-07-22T09:14:49.565Z,28.43
2018-07-22T09:15:49.585Z,27.00
2018-07-22T09:16:49.603Z,27.34
2018-07-22T09:17:49.654Z,27.62
2018-07-22T09:18:49.632Z,27.92
2018-07-22T09:19:49.650Z,28.36
2018-07-22T09:20:49.669Z,28.05
2018-07-22T09:21:49.686Z,28.62
2018-07-22T09:22:49.710Z,28.64
2018-07-22T09:23:49.729Z,28.24
2018-07-22T09:24:49.742Z,30.09
2018-07-22T09:25:49.758Z,32.23
2018-07-22T09:26:49.781Z,31.50
2018-07-22T09:27:49.800Z,30.18
2018-07-22T09:28:49.816Z,30.94
2018-07-22T09:29:49.833Z,31.25
2018-07-22T09:30:49.847Z,31.35
2018-07-22T09:31:49.865Z,31.35
2018-07-22T09:32:49.884Z,30.52
2018-07-22T09:33:49.902Z,30.71
2018-07-22T09:34:49.924Z,31.78
2018-07-22T09:35:49.963Z,31.90
2018-07-22T09:36:49.961Z,32.06
2018-07-22T09:37:49.978Z,32.92
2018-07-22T09:38:49.992Z,32.06
2018-07-22T09:39:50.009Z,32.29
2018-07-22T09:40:50.032Z,31.98
2018-07-22T09:41:50.081Z,31.36
2018-07-22T09:42:50.064Z,28.81
2018-07-22T09:43:50.082Z,28.72
2018-07-22T09:44:50.104Z,29.50
2018-07-22T09:45:50.120Z,29.57
2018-07-22T09:46:50.144Z,29.30
2018-07-22T09:47:50.160Z,29.48
2018-07-22T09:48:50.179Z,28.41
2018-07-22T09:49:50.198Z,28.03
2018-07-22T09:50:50.209Z,29.64
2018-07-22T09:51:50.230Z,29.75
2018-07-22T09:52:50.251Z,29.37
2018-07-22T09:53:50.308Z,29.07
2018-07-22T09:54:50.288Z,29.19
2018-07-22T09:55:50.307Z,29.21
2018-07-22T09:56:50.323Z,29.30
2018-07-22T09:57:50.339Z,28.22
2018-07-22T09:58:50.362Z,28.22
2018-07-22T09:59:50.382Z,28.04
2018-07-22T10:00:50.402Z,27.09
2018-07-22T10:01:50.419Z,25.00
2018-07-22T10:02:50.435Z,24.48
2018-07-22T10:03:50.453Z,25.45
2018-07-22T10:04:50.517Z,26.81
2018-07-22T10:05:50.490Z,28.09
2018-07-22T10:06:50.515Z,28.01
2018-07-22T10:07:50.532Z,28.38
2018-07-22T10:08:50.552Z,28.66
2018-07-22T10:09:50.569Z,28.79
2018-07-22T10:10:50.583Z,28.79
2018-07-22T10:11:50.602Z,28.79
2018-07-22T10:12:50.625Z,29.38
2018-07-22T10:13:50.644Z,29.14
2018-07-22T10:14:50.713Z,30.11
2018-07-22T10:15:50.677Z,30.46
2018-07-22T10:16:50.696Z,29.66
2018-07-22T10:17:50.713Z,29.50
2018-07-22T10:18:50.736Z,28.70
2018-07-22T10:19:50.757Z,29.24
2018-07-22T10:20:50.777Z,29.77
2018-07-22T10:21:50.800Z,29.61
2018-07-22T10:22:50.808Z,28.30
2018-07-22T10:23:50.825Z,28.22
2018-07-22T10:24:50.844Z,26.87
2018-07-22T10:25:50.862Z,27.69
2018-07-22T10:26:50.886Z,29.25
2018-07-22T10:27:50.904Z,29.38
2018-07-22T10:28:50.918Z,28.93
2018-07-22T10:29:50.937Z,28.61
2018-07-22T10:30:50.960Z,28.49
2018-07-22T10:31:50.978Z,29.36
2018-07-22T10:32:50.998Z,30.19
2018-07-22T10:33:51.016Z,31.20
2018-07-22T10:34:51.030Z,29.51
2018-07-22T10:35:51.100Z,28.42
2018-07-22T10:36:51.072Z,28.44
2018-07-22T10:37:51.086Z,28.08
2018-07-22T10:38:51.110Z,28.52
2018-07-22T10:39:51.128Z,28.72
2018-07-22T10:40:51.187Z,28.56
2018-07-22T10:41:51.168Z,28.65
2018-07-22T10:42:51.178Z,29.02
2018-07-22T10:43:51.197Z,28.96
2018-07-22T10:44:51.219Z,27.90
2018-07-22T10:45:51.236Z,27.15
2018-07-22T10:46:51.249Z,28.23
2018-07-22T10:47:51.267Z,27.92
2018-07-22T10:48:51.286Z,28.02
2018-07-22T10:49:51.303Z,28.41
2018-07-22T10:50:51.345Z,29.39
2018-07-22T10:51:51.344Z,29.20
2018-07-22T10:52:51.363Z,28.70
2018-07-22T10:53:51.381Z,28.38
2018-07-22T10:54:51.390Z,29.47
2018-07-22T10:55:51.410Z,30.04
2018-07-22T10:56:51.427Z,31.20
2018-07-22T10:57:51.442Z,31.62
2018-07-22T10:58:51.465Z,31.03
2018-07-22T10:59:51.484Z,31.14
2018-07-22T11:00:51.493Z,30.76
2018-07-22T11:01:51.510Z,29.48
2018-07-22T11:02:51.531Z,29.55
2018-07-22T11:03:51.549Z,29.35
2018-07-22T11:04:51.568Z,30.93
2018-07-22T11:05:51.583Z,31.21
2018-07-22T11:06:51.594Z,32.10
2018-07-22T11:07:51.611Z,31.65
2018-07-22T11:08:51.628Z,31.06
2018-07-22T11:09:51.644Z,31.27
2018-07-22T11:10:51.666Z,30.88
2018-07-22T11:11:51.683Z,30.60
2018-07-22T11:12:51.700Z,29.95
2018-07-22T11:13:51.715Z,28.51
2018-07-22T11:14:51.832Z,28.59
2018-07-22T11:15:51.745Z,28.27
2018-07-22T11:16:51.767Z,28.25
2018-07-22T11:17:51.785Z,27.97
2018-07-22T11:18:51.846Z,27.80
2018-07-22T11:19:51.813Z,28.42
2018-07-22T11:20:51.835Z,29.39
2018-07-22T11:21:51.847Z,29.21
2018-07-22T11:22:51.869Z,29.21
2018-07-22T11:23:51.886Z,29.03
2018-07-22T11:24:51.904Z,28.61
2018-07-22T11:25:51.920Z,30.03
2018-07-22T11:26:51.932Z,30.80
2018-07-22T11:27:51.948Z,32.24
2018-07-22T11:28:52.101Z,33.31
2018-07-22T11:29:51.981Z,34.30
2018-07-22T11:30:52.000Z,34.20
2018-07-22T11:31:52.016Z,34.36
2018-07-22T11:32:52.028Z,34.16
2018-07-22T11:33:52.042Z,33.56
2018-07-22T11:34:52.060Z,33.56
2018-07-22T11:35:52.114Z,34.92
2018-07-22T11:36:52.091Z,35.50
2018-07-22T11:37:52.105Z,35.58
2018-07-22T11:38:52.112Z,36.06
2018-07-22T11:39:52.125Z,37.43
2018-07-22T11:40:52.140Z,37.35
2018-07-22T11:41:52.152Z,37.33
2018-07-22T11:42:52.169Z,37.90
2018-07-22T11:43:52.253Z,38.47
2018-07-22T11:44:52.194Z,39.06
2018-07-22T11:45:52.205Z,39.37
2018-07-22T11:46:52.212Z,40.14
2018-07-22T11:47:52.224Z,40.27
2018-07-22T11:48:52.242Z,39.17
2018-07-22T11:49:52.250Z,40.16
2018-07-22T11:50:52.257Z,40.16
2018-07-22T11:51:52.267Z,39.27
2018-07-22T11:52:52.277Z,39.17
2018-07-22T11:53:52.289Z,39.37
2018-07-22T11:54:52.304Z,40.14
2018-07-22T11:55:52.312Z,40.23
2018-07-22T11:56:52.323Z,40.92
2018-07-22T11:57:52.334Z,41.11
2018-07-22T11:58:52.391Z,39.17
2018-07-22T11:59:52.347Z,39.45
2018-07-22T12:00:52.358Z,40.03
2018-07-22T12:01:52.370Z,40.33
2018-07-22T12:02:52.382Z,40.16
2018-07-22T12:03:52.391Z,40.25
2018-07-22T12:04:52.396Z,38.88
2018-07-22T12:05:52.469Z,39.37
2018-07-22T12:06:52.419Z,39.54
2018-07-22T12:07:52.427Z,38.96
2018-07-22T12:08:52.436Z,38.59
2018-07-22T12:09:52.443Z,38.75
2018-07-22T12:10:52.448Z,38.94
2018-07-22T12:11:52.456Z,40.11
2018-07-22T12:12:52.465Z,40.60
2018-07-22T12:13:52.473Z,40.63
2018-07-22T12:14:52.486Z,40.33
2018-07-22T12:15:52.496Z,40.11
2018-07-22T12:16:52.505Z,40.53
2018-07-22T12:17:52.512Z,41.11
2018-07-22T12:18:52.514Z,40.82
2018-07-22T12:19:52.524Z,39.94
2018-07-22T12:20:52.539Z,40.70
2018-07-22T12:21:52.548Z,40.70
2018-07-22T12:22:52.551Z,40.80
2018-07-22T12:23:52.555Z,40.80
2018-07-22T12:24:52.563Z,41.21
2018-07-22T12:25:52.569Z,41.19
2018-07-22T12:26:52.582Z,40.82
2018-07-22T12:27:52.591Z,40.72
2018-07-22T12:28:52.599Z,40.16
2018-07-22T12:29:52.613Z,38.98
2018-07-22T12:30:52.611Z,39.94
2018-07-22T12:31:52.617Z,40.03
2018-07-22T12:32:52.627Z,38.98
2018-07-22T12:33:52.632Z,38.86
2018-07-22T12:34:52.647Z,38.67
2018-07-22T12:35:52.654Z,38.96
2018-07-22T12:36:52.657Z,38.26
2018-07-22T12:37:52.663Z,39.04
2018-07-22T12:38:52.675Z,39.14
2018-07-22T12:39:52.686Z,40.11
2018-07-22T12:40:52.691Z,40.11
2018-07-22T12:41:52.698Z,40.58
2018-07-22T12:42:52.701Z,41.46
2018-07-22T12:43:52.708Z,42.32
2018-07-22T12:44:52.717Z,42.52
2018-07-22T12:45:52.724Z,43.03
2018-07-22T12:46:52.737Z,43.01
2018-07-22T12:47:52.745Z,43.32
2018-07-22T12:48:52.752Z,43.23
2018-07-22T12:49:52.756Z,42.83
2018-07-22T12:50:52.760Z,42.95
2018-07-22T12:51:52.771Z,42.76
2018-07-22T12:52:52.811Z,41.60